Time;durP1;ratioP1;P1;durP2;ratioP2;P2;SDS_P1;SDS_P2;PMS_P1;PMS_P2;Temp;Humidity;BMP_temperature;BMP_pressure;BME280_temperature;BME280_humidity;BME280_pressure;Samples;Min_cycle;Max_cycle;Signal;HPM_P1;HPM_P2
2023/06/04 00:01:13;;;;;;;2.40;1.80;;;;;;;10.87;100.00;100336.95;104484;1253;60571;-63
2023/06/04 00:03:43;;;;;;;3.40;1.60;;;;;;;10.82;100.00;100339.54;104320;1274;74193;-63
2023/06/04 00:06:10;;;;;;;2.50;1.90;;;;;;;10.79;100.00;100340.90;104490;1268;69238;-65
2023/06/04 00:08:37;;;;;;;2.00;1.80;;;;;;;10.76;100.00;100339.23;104459;1269;72992;-64
2023/06/04 00:11:04;;;;;;;4.50;1.50;;;;;;;10.74;100.00;100338.27;104243;1265;62505;-64
2023/06/04 00:13:31;;;;;;;4.20;1.90;;;;;;;10.73;100.00;100337.94;104597;1253;60545;-62
2023/06/04 00:15:58;;;;;;;2.00;1.80;;;;;;;10.74;100.00;100336.84;104408;1257;74033;-63
2023/06/04 00:18:25;;;;;;;3.60;1.70;;;;;;;10.74;100.00;100335.46;104493;1258;69429;-65
2023/06/04 00:20:52;;;;;;;2.50;1.60;;;;;;;10.74;100.00;100337.92;104288;1274;73399;-62
2023/06/04 00:23:19;;;;;;;2.70;1.60;;;;;;;10.72;100.00;100340.76;104493;1259;60996;-63
2023/06/04 00:25:46;;;;;;;2.00;1.60;;;;;;;10.69;100.00;100339.46;104491;1251;60643;-63
2023/06/04 00:28:13;;;;;;;2.10;1.80;;;;;;;10.68;100.00;100338.97;104322;1253;74213;-63
2023/06/04 00:30:40;;;;;;;1.70;1.60;;;;;;;10.65;100.00;100340.11;104501;1256;69350;-62
2023/06/04 00:33:07;;;;;;;2.00;1.50;;;;;;;10.57;100.00;100339.65;104340;1259;72622;-63
2023/06/04 00:35:34;;;;;;;6.30;1.80;;;;;;;10.52;100.00;100340.16;104370;1259;61554;-64
2023/06/04 00:38:01;;;;;;;3.90;1.60;;;;;;;10.50;100.00;100342.34;104498;1254;60562;-62
2023/06/04 00:40:28;;;;;;;4.80;1.60;;;;;;;10.48;100.00;100341.86;104316;1271;74607;-63
2023/06/04 00:42:55;;;;;;;2.00;1.30;;;;;;;10.45;100.00;100342.30;104283;1259;70665;-62
2023/06/04 00:45:25;;;;;;;1.30;1.20;;;;;;;10.45;100.00;100340.94;104446;1254;72593;-62
2023/06/04 00:47:53;;;;;;;2.60;1.40;;;;;;;10.43;100.00;100343.09;104392;1251;61600;-61
2023/06/04 00:50:20;;;;;;;3.30;1.20;;;;;;;10.43;100.00;100342.73;104439;1263;59693;-62
2023/06/04 00:52:48;;;;;;;;;;;;;;;10.40;100.00;100343.34;104310;1252;74144;-62
2023/06/04 00:55:17;;;;;;;;;;;;;;;10.33;100.00;100345.30;104431;1256;69086;-63
2023/06/04 00:57:44;;;;;;;1.40;1.10;;;;;;;10.23;100.00;100349.80;104440;1253;71609;-62
2023/06/04 01:00:12;;;;;;;1.40;1.30;;;;;;;10.19;100.00;100352.20;104484;1254;61837;-62
2023/06/04 01:02:40;;;;;;;4.40;1.20;;;;;;;10.15;100.00;100354.40;104405;1258;59645;-62
2023/06/04 01:05:11;;;;;;;;;;;;;;;10.13;100.00;100354.99;104412;1253;74044;-63
2023/06/04 01:07:40;;;;;;;1.50;1.30;;;;;;;10.11;100.00;100353.30;104394;1258;70409;-63
2023/06/04 01:10:07;;;;;;;2.70;1.30;;;;;;;10.07;100.00;100350.95;104281;1253;72554;-63
2023/06/04 01:12:35;;;;;;;1.50;1.00;;;;;;;10.07;100.00;100352.88;104421;1259;61750;-62
2023/06/04 01:15:01;;;;;;;1.30;1.20;;;;;;;10.10;100.00;100351.41;104411;1253;60619;-62
2023/06/04 01:17:37;;;;;;;1.40;1.30;;;;;;;10.08;100.00;100353.89;104404;1254;74543;-63
2023/06/04 01:20:39;;;;;;;3.20;1.30;;;;;;;10.07;100.00;100352.73;104278;1257;69436;-63
2023/06/04 01:23:15;;;;;;;3.50;1.10;;;;;;;10.07;100.00;100353.25;104410;1258;73233;-64
2023/06/04 01:25:43;;;;;;;5.80;1.10;;;;;;;10.08;100.00;100350.75;104411;1253;61894;-62
2023/06/04 01:28:12;;;;;;;5.10;1.20;;;;;;;10.11;100.00;100346.30;104514;1259;60544;-64
2023/06/04 01:30:43;;;;;;;5.50;1.60;;;;;;;10.14;100.00;100344.80;104392;1256;73540;-63
2023/06/04 01:33:11;;;;;;;1.40;1.10;;;;;;;10.14;100.00;100346.20;104352;1257;70218;-64
2023/06/04 01:35:38;;;;;;;1.10;1.00;;;;;;;10.14;100.00;100352.33;104373;1259;72440;-63
2023/06/04 01:38:05;;;;;;;2.10;1.10;;;;;;;10.13;100.00;100352.71;104322;1269;61684;-64
2023/06/04 01:40:32;;;;;;;4.00;1.40;;;;;;;10.14;100.00;100359.69;106796;1252;60453;-64
2023/06/04 01:43:00;;;;;;;1.30;1.20;;;;;;;10.20;100.00;100360.91;105775;1253;73594;-64
2023/06/04 01:45:27;;;;;;;5.10;1.60;;;;;;;10.24;100.00;100366.23;104850;1257;70002;-63
2023/06/04 01:47:54;;;;;;;1.40;1.30;;;;;;;10.29;100.00;100363.80;104475;1269;72794;-62
2023/06/04 01:50:21;;;;;;;5.00;1.30;;;;;;;10.32;100.00;100362.16;104738;1252;61716;-63
2023/06/04 01:52:48;;;;;;;1.60;1.50;;;;;;;10.36;100.00;100358.36;104354;1251;60467;-63
2023/06/04 01:55:16;;;;;;;2.30;1.50;;;;;;;10.40;100.00;100360.71;104426;1264;73443;-63
2023/06/04 01:57:43;;;;;;;1.40;1.30;;;;;;;10.42;100.00;100360.45;104552;1257;69258;-65
2023/06/04 02:00:11;;;;;;;1.70;1.30;;;;;;;10.44;100.00;100360.91;104375;1270;72589;-65
2023/06/04 02:02:44;;;;;;;5.90;1.50;;;;;;;10.48;100.00;100365.71;104400;1253;61517;-62
2023/06/04 02:05:11;;;;;;;1.80;1.60;;;;;;;10.50;100.00;100364.26;104403;1251;60546;-63
2023/06/04 02:07:41;;;;;;;5.30;1.60;;;;;;;10.52;100.00;100367.87;104487;1253;74226;-63
2023/06/04 02:10:09;;;;;;;2.10;1.60;;;;;;;10.55;100.00;100367.95;104376;1255;68526;-63
2023/06/04 02:12:36;;;;;;;;;;;;;;;10.59;100.00;100374.67;104297;1268;71566;-63
2023/06/04 02:15:04;;;;;;;3.30;1.60;;;;;;;10.57;100.00;100375.08;104424;1263;61894;-62
2023/06/04 02:17:37;;;;;;;2.50;1.70;;;;;;;10.55;100.00;100372.50;104441;1275;60593;-62
2023/06/04 02:20:06;;;;;;;5.20;1.80;;;;;;;10.59;100.00;100381.31;104426;1265;72350;-61
2023/06/04 02:22:33;;;;;;;4.10;1.90;;;;;;;10.60;100.00;100380.94;104310;1257;69377;-62
2023/06/04 02:25:00;;;;;;;5.60;2.20;;;;;;;10.59;100.00;100382.73;104239;1259;73354;-62
2023/06/04 02:27:27;;;;;;;4.10;1.90;;;;;;;10.58;100.00;100382.39;104323;1259;60599;-63
2023/06/04 02:29:54;;;;;;;3.10;1.90;;;;;;;10.62;100.00;100382.45;104351;1258;60549;-63
2023/06/04 02:32:21;;;;;;;2.00;1.70;;;;;;;10.67;100.00;100384.23;104368;1269;74280;-62
2023/06/04 02:34:49;;;;;;;5.00;2.20;;;;;;;10.69;100.00;100382.41;104486;1255;68172;-62
2023/06/04 02:37:16;;;;;;;3.20;1.90;;;;;;;10.69;100.00;100378.72;104247;1259;73387;-62
2023/06/04 02:39:43;;;;;;;2.90;2.30;;;;;;;10.68;100.00;100385.95;104358;1257;61774;-63
2023/06/04 02:42:10;;;;;;;2.60;1.80;;;;;;;10.69;100.00;100388.02;104391;1251;60764;-63
2023/06/04 02:44:37;;;;;;;2.70;2.20;;;;;;;10.70;100.00;100392.91;104325;1254;74232;-63
2023/06/04 02:47:04;;;;;;;2.80;1.90;;;;;;;10.67;100.00;100393.35;104392;1258;69908;-62
2023/06/04 02:49:31;;;;;;;4.60;2.00;;;;;;;10.67;100.00;100393.34;107559;1256;72895;-63
2023/06/04 02:51:58;;;;;;;5.00;1.60;;;;;;;10.68;100.00;100392.42;104552;1259;61606;-61
2023/06/04 02:54:25;;;;;;;2.00;1.60;;;;;;;10.70;100.00;100393.95;104588;1267;60532;-62
2023/06/04 02:56:53;;;;;;;2.30;1.60;;;;;;;10.75;100.00;100400.27;104726;1259;73611;-62
2023/06/04 02:59:20;;;;;;;1.60;1.50;;;;;;;10.77;100.00;100404.94;105086;1269;69979;-62
2023/06/04 03:01:48;;;;;;;2.70;1.90;;;;;;;10.78;100.00;100404.08;104626;1270;72690;-62
2023/06/04 03:04:15;;;;;;;3.70;1.90;;;;;;;10.84;100.00;100407.72;104340;1268;60514;-63
2023/06/04 03:06:46;;;;;;;7.20;2.20;;;;;;;10.91;100.00;100412.42;104477;1257;60448;-63
2023/06/04 03:09:13;;;;;;;3.60;1.90;;;;;;;10.96;100.00;100414.89;104501;1253;73959;-62
2023/06/04 03:11:40;;;;;;;2.20;1.80;;;;;;;11.01;100.00;100414.20;104371;1256;70058;-62
2023/06/04 03:14:08;;;;;;;2.60;1.80;;;;;;;11.09;100.00;100412.20;104411;1271;73380;-64
2023/06/04 03:16:39;;;;;;;1.90;1.70;;;;;;;11.13;100.00;100415.91;104571;1258;61978;-62
2023/06/04 03:19:06;;;;;;;2.90;1.60;;;;;;;11.17;100.00;100415.61;104530;1257;60483;-65
2023/06/04 03:21:33;;;;;;;3.00;1.30;;;;;;;11.19;100.00;100414.30;104393;1273;73197;-63
2023/06/04 03:24:00;;;;;;;3.60;1.60;;;;;;;11.21;100.00;100412.48;104451;1256;69915;-63
2023/06/04 03:26:27;;;;;;;2.60;1.70;;;;;;;11.21;100.00;100413.73;104478;1259;72284;-63
2023/06/04 03:28:54;;;;;;;3.00;1.40;;;;;;;11.22;100.00;100416.66;104396;1257;61793;-62
2023/06/04 03:31:22;;;;;;;1.70;1.60;;;;;;;11.28;100.00;100412.09;104579;1269;60650;-62
2023/06/04 03:33:49;;;;;;;1.70;1.30;;;;;;;11.34;100.00;100415.23;104324;1256;73920;-63
2023/06/04 03:36:16;;;;;;;2.40;1.40;;;;;;;11.42;100.00;100417.95;104521;1274;68798;-63
2023/06/04 03:38:45;;;;;;;2.10;1.60;;;;;;;11.51;100.00;100414.11;104556;1259;72540;-63
2023/06/04 03:41:13;;;;;;;2.90;1.60;;;;;;;11.60;100.00;100415.73;108124;1253;60725;-65
2023/06/04 03:43:41;;;;;;;5.90;1.50;;;;;;;11.72;100.00;100412.88;107021;1253;59356;-64
2023/06/04 03:46:09;;;;;;;3.10;1.40;;;;;;;11.81;100.00;100413.77;104337;1260;74017;-63
2023/06/04 03:48:37;;;;;;;6.00;1.50;;;;;;;11.92;100.00;100415.52;104502;1257;69170;-64
2023/06/04 03:51:04;;;;;;;1.60;1.40;;;;;;;12.05;100.00;100414.69;104798;1256;73130;-63
2023/06/04 03:53:32;;;;;;;1.90;1.40;;;;;;;12.20;100.00;100412.19;104442;1269;61926;-64
2023/06/04 03:56:00;;;;;;;3.30;1.20;;;;;;;12.31;100.00;100410.04;104344;1275;60557;-62
2023/06/04 03:58:28;;;;;;;2.50;1.30;;;;;;;12.40;100.00;100415.68;104438;1260;73920;-65
2023/06/04 04:00:57;;;;;;;2.30;1.40;;;;;;;12.49;100.00;100413.04;104457;1269;69724;-62
2023/06/04 04:03:24;;;;;;;3.40;1.40;;;;;;;12.61;100.00;100411.20;104525;1268;72585;-63
2023/06/04 04:05:51;;;;;;;2.20;1.70;;;;;;;12.70;100.00;100412.97;104384;1259;61780;-64
2023/06/04 04:08:21;;;;;;;1.80;1.50;;;;;;;12.79;100.00;100414.52;104433;1272;61232;-64
2023/06/04 04:10:50;;;;;;;2.20;1.40;;;;;;;12.89;100.00;100418.36;104475;1266;74178;-64
2023/06/04 04:13:17;;;;;;;2.70;1.30;;;;;;;12.98;100.00;100422.20;104511;1260;68521;-64
2023/06/04 04:15:44;;;;;;;;;;;;;;;13.12;100.00;100426.40;104395;1260;73897;-63
2023/06/04 04:18:11;;;;;;;1.90;1.10;;;;;;;13.27;100.00;100426.49;104468;1254;62056;-63
2023/06/04 04:20:39;;;;;;;2.80;1.00;;;;;;;13.42;100.00;100427.67;104474;1269;60588;-67
2023/06/04 04:23:08;;;;;;;3.10;1.00;;;;;;;13.58;100.00;100430.14;104366;1275;74069;-65
2023/06/04 04:25:36;;;;;;;1.10;0.80;;;;;;;13.71;100.00;100429.41;104339;1266;69890;-65
2023/06/04 04:28:06;;;;;;;;;;;;;;;13.85;100.00;100429.70;104419;1273;71330;-68
2023/06/04 04:30:34;;;;;;;2.50;0.60;;;;;;;13.95;100.00;100431.52;104437;1258;61360;-66
2023/06/04 04:33:05;;;;;;;1.60;0.90;;;;;;;14.08;100.00;100429.93;104473;1258;60479;-64
2023/06/04 04:35:35;;;;;;;0.90;0.70;;;;;;;14.17;93.96;100432.16;104284;1257;74707;-65
2023/06/04 04:38:07;;;;;;;1.50;0.80;;;;;;;14.27;91.23;100430.83;104681;1253;68859;-64
2023/06/04 04:40:39;;;;;;;3.40;1.10;;;;;;;14.38;88.57;100426.45;104836;1251;73365;-64
2023/06/04 04:43:07;;;;;;;2.20;0.70;;;;;;;14.47;87.62;100428.85;108022;1254;60234;-66
2023/06/04 04:45:34;;;;;;;1.70;0.70;;;;;;;14.59;86.94;100428.12;105712;1255;60590;-65
2023/06/04 04:48:02;;;;;;;2.50;0.90;;;;;;;14.76;85.32;100427.68;104414;1258;74298;-69
2023/06/04 04:50:31;;;;;;;1.10;0.70;;;;;;;14.89;79.36;100430.45;107189;1251;69168;-73
2023/06/04 04:52:58;;;;;;;1.80;0.70;;;;;;;14.93;78.81;100430.41;107980;1253;72487;-69
2023/06/04 04:55:25;;;;;;;2.40;0.80;;;;;;;15.00;76.73;100429.55;104804;1253;60472;-70
2023/06/04 04:57:52;;;;;;;1.20;0.70;;;;;;;15.07;75.94;100423.38;104558;1269;60309;-71
2023/06/04 05:00:20;;;;;;;0.80;0.60;;;;;;;15.13;77.28;100425.89;104667;1254;73347;-72
2023/06/04 05:02:49;;;;;;;1.50;0.80;;;;;;;15.21;76.57;100427.11;105066;1268;69516;-68
2023/06/04 05:05:16;;;;;;;1.80;0.70;;;;;;;15.31;76.85;100426.25;104372;1266;72741;-67
2023/06/04 05:07:43;;;;;;;1.80;0.90;;;;;;;15.43;75.64;100426.03;104377;1257;60564;-67
2023/06/04 05:10:10;;;;;;;2.00;0.80;;;;;;;15.53;74.92;100431.54;104464;1256;60565;-66
2023/06/04 05:12:39;;;;;;;3.90;1.40;;;;;;;15.59;72.61;100432.08;104357;1267;74096;-66
2023/06/04 05:15:07;;;;;;;1.90;0.90;;;;;;;15.64;71.25;100434.67;104400;1274;69650;-66
2023/06/04 05:17:35;;;;;;;2.40;0.80;;;;;;;15.72;71.57;100434.98;104312;1254;72853;-66
2023/06/04 05:20:05;;;;;;;1.00;0.90;;;;;;;15.81;68.72;100438.41;104360;1262;60709;-67
2023/06/04 05:22:32;;;;;;;2.20;1.00;;;;;;;15.93;69.30;100435.31;104295;1273;59975;-66
2023/06/04 05:25:00;;;;;;;2.00;0.70;;;;;;;16.01;68.39;100434.73;104342;1257;73326;-68
2023/06/04 05:27:27;;;;;;;1.60;0.60;;;;;;;16.08;67.82;100438.77;104429;1261;69656;-66
2023/06/04 05:29:55;;;;;;;2.80;0.90;;;;;;;16.17;68.87;100438.11;104478;1269;72448;-69
2023/06/04 05:32:22;;;;;;;0.80;0.60;;;;;;;16.24;66.57;100436.70;104235;1254;60568;-67
2023/06/04 05:34:50;;;;;;;2.10;0.80;;;;;;;16.28;65.97;100432.71;104515;1259;60043;-66
2023/06/04 05:37:17;;;;;;;1.50;0.90;;;;;;;16.36;61.84;100429.50;104382;1272;73724;-69
2023/06/04 05:39:44;;;;;;;4.30;0.80;;;;;;;16.41;61.71;100427.64;104418;1263;68825;-70
2023/06/04 05:42:15;;;;;;;2.80;0.80;;;;;;;16.52;60.94;100432.54;105374;1254;73890;-69
2023/06/04 05:44:42;;;;;;;2.80;1.00;;;;;;;16.56;56.04;100432.09;107781;1253;60168;-73
2023/06/04 05:47:10;;;;;;;1.10;0.70;;;;;;;16.57;55.00;100430.47;105071;1259;60469;-70
2023/06/04 05:49:37;;;;;;;0.90;0.70;;;;;;;16.56;56.70;100428.23;104754;1259;74645;-70
2023/06/04 05:52:05;;;;;;;2.20;0.60;;;;;;;16.64;57.30;100429.58;105066;1259;70058;-70
2023/06/04 05:54:33;;;;;;;1.30;0.60;;;;;;;16.78;54.76;100422.95;104693;1258;73443;-72
2023/06/04 05:57:00;;;;;;;0.50;0.40;;;;;;;16.89;52.70;100426.95;104566;1258;60530;-68
2023/06/04 05:59:26;;;;;;;3.40;0.70;;;;;;;16.95;50.88;100426.64;104530;1260;60662;-68
2023/06/04 06:03:16;;;;;;;2.50;0.70;;;;;;;16.57;54.03;100432.91;101641;1293;601849;-70
2023/06/04 06:05:45;;;;;;;1.10;0.70;;;;;;;16.95;49.72;100433.88;103786;1269;60219;-70
2023/06/04 06:08:14;;;;;;;1.20;0.50;;;;;;;17.04;49.18;100435.82;103767;1267;60113;-70
2023/06/04 06:10:42;;;;;;;3.10;0.80;;;;;;;17.14;48.44;100438.27;103660;1272;71979;-68
2023/06/04 06:13:10;;;;;;;1.10;0.50;;;;;;;17.22;48.08;100432.15;103781;1279;69538;-70
2023/06/04 06:15:38;;;;;;;;;;;;;;;17.29;47.20;100435.09;103712;1270;73207;-71
2023/06/04 06:18:06;;;;;;;2.20;0.60;;;;;;;17.26;45.58;100427.83;103808;1269;174339;-72
2023/06/04 06:20:33;;;;;;;0.80;0.50;;;;;;;17.27;47.24;100428.15;104119;1261;60164;-73
2023/06/04 06:23:08;;;;;;;0.80;0.60;;;;;;;17.40;46.48;100427.25;104006;1264;72194;-70
2023/06/04 06:25:40;;;;;;;0.70;0.70;;;;;;;17.52;45.27;100427.58;104060;1269;70127;-70
2023/06/04 06:28:13;;;;;;;0.70;0.40;;;;;;;17.59;44.61;100433.71;104051;1263;72367;-71
2023/06/04 06:30:41;;;;;;;3.00;0.50;;;;;;;17.64;43.58;100432.52;104022;1269;60042;-69
2023/06/04 06:33:09;;;;;;;5.60;0.40;;;;;;;17.75;44.57;100434.67;103986;1270;59868;-73
2023/06/04 06:35:38;;;;;;;0.30;0.30;;;;;;;17.90;42.37;100434.87;104000;1267;72902;-71
2023/06/04 06:38:06;;;;;;;1.60;0.70;;;;;;;18.03;41.98;100437.81;104112;1257;68993;-73
2023/06/04 06:40:33;;;;;;;1.00;0.60;;;;;;;18.11;41.12;100437.69;104213;1261;72339;-73
2023/06/04 06:43:01;;;;;;;0.60;0.50;;;;;;;18.19;41.00;100435.44;105643;1258;59690;-74
2023/06/04 06:45:29;;;;;;;1.20;0.50;;;;;;;18.25;41.75;100433.95;107521;1257;58899;-70
2023/06/04 06:47:57;;;;;;;;;;;;;;;18.33;41.78;100432.81;104418;1257;73672;-70
2023/06/04 06:50:24;;;;;;;;;;;;;;;18.34;40.89;100430.24;104299;1262;69075;-74
2023/06/04 06:52:52;;;;;;;0.60;0.60;;;;;;;18.28;39.33;100430.77;104181;1263;72398;-72
2023/06/04 06:55:20;;;;;;;3.40;0.80;;;;;;;18.22;40.86;100434.16;104359;1262;60502;-69
2023/06/04 06:57:48;;;;;;;0.60;0.50;;;;;;;18.28;41.31;100436.27;104001;1260;59696;-71
2023/06/04 07:00:16;;;;;;;0.80;0.70;;;;;;;18.31;40.84;100431.30;104124;1263;72797;-67
2023/06/04 07:02:44;;;;;;;1.10;0.60;;;;;;;18.34;41.42;100433.09;103959;1258;69339;-68
2023/06/04 07:05:15;;;;;;;0.80;0.60;;;;;;;18.39;42.09;100433.30;104172;1258;72901;-69
2023/06/04 07:07:43;;;;;;;0.80;0.60;;;;;;;18.45;40.69;100430.75;104140;1260;59773;-66
2023/06/04 07:10:10;;;;;;;2.90;1.00;;;;;;;18.45;41.22;100432.34;104086;1263;59818;-64
2023/06/04 07:12:39;;;;;;;;;;;;;;;18.50;40.97;100430.12;104140;1263;72813;-64
2023/06/04 07:15:10;;;;;;;3.00;0.80;;;;;;;18.54;41.35;100430.76;104350;1266;70029;-68
2023/06/04 07:17:37;;;;;;;;;;;;;;;18.53;40.49;100432.95;104260;1261;72511;-67
2023/06/04 07:20:07;;;;;;;2.00;0.60;;;;;;;18.60;40.93;100433.20;104231;1261;60265;-69
2023/06/04 07:22:35;;;;;;;86.90;55.90;;;;;;;18.68;41.96;100434.50;104287;1260;60097;-66
2023/06/04 07:25:03;;;;;;;129.40;51.10;;;;;;;18.84;41.90;100430.09;104116;1257;71740;-66
2023/06/04 07:27:31;;;;;;;83.40;26.40;;;;;;;18.97;41.44;100435.67;104362;1258;70101;-69
2023/06/04 07:29:58;;;;;;;15.50;6.10;;;;;;;19.08;41.21;100439.20;104056;1263;71685;-70
2023/06/04 07:32:26;;;;;;;312.60;112.90;;;;;;;19.17;40.12;100439.33;104136;1257;59757;-68
2023/06/04 07:34:54;;;;;;;95.30;34.50;;;;;;;19.21;40.06;100432.67;104339;1260;59994;-69
2023/06/04 07:37:21;;;;;;;29.20;13.80;;;;;;;19.22;39.74;100430.65;104388;1263;72848;-69
2023/06/04 07:39:50;;;;;;;29.50;15.90;;;;;;;19.21;39.40;100427.67;104131;1258;69102;-69
2023/06/04 07:42:18;;;;;;;1146.60;536.90;;;;;;;19.15;38.98;100424.89;103996;1261;73014;-69
2023/06/04 07:44:47;;;;;;;197.70;84.70;;;;;;;19.08;38.05;100423.22;107514;1258;59939;-71
2023/06/04 07:47:14;;;;;;;139.20;62.00;;;;;;;19.11;38.91;100425.52;104574;1257;59341;-68
2023/06/04 07:49:42;;;;;;;650.60;351.90;;;;;;;19.18;39.27;100426.63;104336;1264;72939;-68
2023/06/04 07:52:28;;;;;;;350.10;203.70;;;;;;;19.27;39.71;100424.97;104312;1261;69827;-67
2023/06/04 07:54:56;;;;;;;228.90;125.40;;;;;;;19.40;40.00;100421.81;104191;1260;72534;-68
2023/06/04 07:57:24;;;;;;;;;;;;;;;19.52;39.87;100422.42;104025;1266;59631;-69
2023/06/04 07:59:52;;;;;;;163.40;92.60;;;;;;;19.60;39.06;100422.78;104030;1261;61076;-69
2023/06/04 08:02:20;;;;;;;250.00;128.50;;;;;;;19.69;38.96;100423.08;104419;1263;73973;-72
2023/06/04 08:04:48;;;;;;;;;;;;;;;19.83;38.18;100427.10;104369;1260;69197;-73
2023/06/04 08:07:15;;;;;;;391.10;189.40;;;;;;;19.91;37.97;100423.86;104439;1263;71512;-68
2023/06/04 08:09:45;;;;;;;133.30;59.70;;;;;;;19.93;38.11;100423.02;104059;1261;59797;-71
2023/06/04 08:12:13;;;;;;;114.10;60.60;;;;;;;20.01;38.31;100423.88;104295;1263;59686;-71
2023/06/04 08:14:40;;;;;;;;;;;;;;;20.06;37.15;100425.70;104048;1263;73494;-72
2023/06/04 08:17:08;;;;;;;974.80;406.50;;;;;;;20.04;37.00;100427.63;107762;1257;69859;-70
2023/06/04 08:19:36;;;;;;;;;;;;;;;19.93;36.23;100428.20;107772;1260;72537;-72
2023/06/04 08:22:05;;;;;;;30.20;16.70;;;;;;;19.79;35.56;100424.33;107638;1260;60019;-68
2023/06/04 08:27:43;;;;;;;4.40;2.80;;;;;;;19.85;36.51;100423.39;101213;1292;617361;-67
2023/06/04 08:30:10;;;;;;;3.50;1.10;;;;;;;19.81;36.72;100419.37;104324;1266;63363;-65
2023/06/04 08:32:37;;;;;;;0.90;0.50;;;;;;;19.81;36.39;100419.55;103805;1274;60973;-64
2023/06/04 08:35:06;;;;;;;2.00;0.60;;;;;;;19.82;35.97;100420.92;103691;1267;72535;-68
2023/06/04 08:37:35;;;;;;;3.90;0.70;;;;;;;19.85;36.19;100415.73;103986;1267;69280;-70
2023/06/04 08:40:04;;;;;;;;;;;;;;;19.88;36.72;100419.12;103773;1264;276167;-74
2023/06/04 08:42:38;;;;;;;1.00;0.60;;;;;;;19.94;35.91;100413.34;103980;1274;59502;-73
2023/06/04 08:45:06;;;;;;;0.70;0.50;;;;;;;19.95;35.67;100415.39;106811;1263;59883;-70
2023/06/04 08:47:33;;;;;;;6.30;0.80;;;;;;;20.05;35.89;100415.94;106033;1265;71076;-70
2023/06/04 08:50:00;;;;;;;0.40;0.40;;;;;;;20.17;35.59;100409.77;104282;1276;69450;-69
2023/06/04 08:52:27;;;;;;;2.10;0.60;;;;;;;20.28;36.06;100407.77;104180;1264;71970;-74
2023/06/04 08:54:54;;;;;;;1.30;0.70;;;;;;;20.37;35.01;100411.77;103980;1267;60856;-68
2023/06/04 08:57:21;;;;;;;1.10;0.70;;;;;;;20.45;35.54;100407.62;103856;1273;59801;-69
2023/06/04 08:59:48;;;;;;;2.60;0.60;;;;;;;20.55;35.72;100408.36;104151;1268;73154;-70
2023/06/04 09:02:15;;;;;;;1.20;0.70;;;;;;;20.64;35.40;100408.07;103870;1270;69758;-70
2023/06/04 09:04:43;;;;;;;2.90;0.60;;;;;;;20.70;35.33;100405.30;103880;1270;72651;-69
2023/06/04 09:07:10;;;;;;;1.00;0.60;;;;;;;20.77;34.79;100401.58;103884;1264;60516;-71
2023/06/04 09:09:38;;;;;;;1.40;0.80;;;;;;;20.77;34.16;100400.69;104181;1264;60245;-68
2023/06/04 09:12:11;;;;;;;1.60;0.90;;;;;;;20.71;33.94;100401.50;104111;1264;72916;-68
2023/06/04 09:14:38;;;;;;;0.70;0.60;;;;;;;20.76;34.24;100401.52;104036;1269;69348;-70
2023/06/04 09:17:05;;;;;;;3.70;0.70;;;;;;;20.81;34.32;100400.77;104102;1267;73557;-69
2023/06/04 09:19:32;;;;;;;2.50;0.60;;;;;;;20.83;34.38;100398.68;104094;1276;60931;-68
2023/06/04 09:22:02;;;;;;;2.90;1.50;;;;;;;20.74;33.47;100392.77;104204;1267;60334;-67
2023/06/04 09:24:43;;;;;;;2.60;0.90;;;;;;;20.69;32.63;100389.54;104304;1257;72820;-69
2023/06/04 09:27:14;;;;;;;1.70;0.70;;;;;;;20.66;33.44;100391.14;104271;1273;69909;-71
2023/06/04 09:29:58;;;;;;;1.60;0.80;;;;;;;20.74;33.35;100383.86;104326;1261;72795;-66
2023/06/04 09:32:30;;;;;;;1.90;0.80;;;;;;;20.76;32.74;100384.91;104181;1260;60610;-68
2023/06/04 09:35:12;;;;;;;0.70;0.70;;;;;;;20.71;33.03;100382.80;104368;1257;60216;-67
2023/06/04 09:37:41;;;;;;;0.70;0.60;;;;;;;20.60;33.45;100379.15;104290;1260;74063;-69
2023/06/04 09:40:08;;;;;;;0.70;0.70;;;;;;;20.62;33.81;100380.91;104454;1272;69642;-71
2023/06/04 09:42:42;;;;;;;;;;;;;;;20.68;33.03;100376.43;104270;1261;72812;-70
2023/06/04 09:45:10;;;;;;;4.90;0.80;;;;;;;20.72;33.24;100372.58;105831;1256;59800;-73
2023/06/04 09:47:43;;;;;;;3.20;0.90;;;;;;;20.72;32.99;100368.98;107190;1256;59267;-69
2023/06/04 09:50:11;;;;;;;1.60;0.70;;;;;;;20.73;33.60;100369.81;104776;1257;73276;-69
2023/06/04 09:52:39;;;;;;;;;;;;;;;20.82;33.32;100361.48;104534;1260;69310;-72
2023/06/04 09:55:20;;;;;;;1.60;1.00;;;;;;;20.86;32.76;100359.21;104526;1256;72740;-74
2023/06/04 09:57:48;;;;;;;1.50;0.70;;;;;;;20.86;32.87;100355.13;104767;1257;59986;-72
2023/06/04 10:00:20;;;;;;;0.90;0.60;;;;;;;20.93;32.95;100354.42;104515;1257;59762;-71
2023/06/04 10:02:47;;;;;;;1.20;1.00;;;;;;;20.98;32.73;100354.78;104393;1257;73480;-72
2023/06/04 10:05:15;;;;;;;2.60;0.90;;;;;;;20.99;32.47;100353.83;104411;1260;69211;-73
2023/06/04 10:07:44;;;;;;;0.90;0.70;;;;;;;21.04;32.61;100355.45;104265;1273;72925;-66
2023/06/04 10:10:14;;;;;;;0.90;0.50;;;;;;;21.05;32.63;100353.90;104265;1260;59695;-66
2023/06/04 10:12:41;;;;;;;1.90;0.80;;;;;;;21.13;32.84;100350.45;104034;1257;59834;-67
2023/06/04 10:15:12;;;;;;;1.90;0.60;;;;;;;21.21;32.65;100349.11;104254;1259;73695;-67
2023/06/04 10:17:40;;;;;;;4.80;0.80;;;;;;;21.25;32.20;100354.57;104169;1260;70262;-67
2023/06/04 10:20:08;;;;;;;2.00;0.60;;;;;;;21.28;32.45;100358.43;104489;1260;72889;-71
2023/06/04 10:22:36;;;;;;;0.70;0.50;;;;;;;21.35;32.49;100359.46;104072;1263;60846;-69
2023/06/04 10:25:04;;;;;;;0.70;0.60;;;;;;;21.48;33.20;100357.63;104317;1257;60138;-68
2023/06/04 10:27:31;;;;;;;3.70;0.80;;;;;;;21.62;32.88;100357.58;104405;1258;72226;-66
2023/06/04 10:29:58;;;;;;;0.90;0.60;;;;;;;21.62;31.73;100352.78;104575;1257;69868;-69
2023/06/04 10:32:28;;;;;;;3.00;1.20;;;;;;;21.57;32.30;100350.16;104326;1260;72862;-68
2023/06/04 10:34:57;;;;;;;2.60;0.80;;;;;;;21.56;32.60;100342.70;104379;1256;59947;-69
2023/06/04 10:37:25;;;;;;;0.70;0.70;;;;;;;21.65;32.61;100345.81;104097;1274;59897;-70
2023/06/04 10:39:53;;;;;;;2.60;0.80;;;;;;;21.79;33.47;100339.35;104387;1264;72545;-69
2023/06/04 10:42:21;;;;;;;;;;;;;;;21.99;33.03;100333.33;104213;1256;69909;-67
2023/06/04 10:44:49;;;;;;;1.30;0.50;;;;;;;22.10;32.26;100328.63;104788;1256;73121;-68
2023/06/04 10:47:26;;;;;;;3.70;0.60;;;;;;;22.19;32.48;100328.45;107782;1257;60260;-69
2023/06/04 10:49:54;;;;;;;4.00;0.50;;;;;;;22.36;32.45;100320.51;106019;1256;59381;-69
2023/06/04 10:52:22;;;;;;;1.20;0.50;;;;;;;22.48;32.52;100319.35;104665;1261;73752;-68
2023/06/04 10:54:48;;;;;;;2.20;1.00;;;;;;;22.55;32.54;100312.88;104212;1261;69421;-67
2023/06/04 10:57:16;;;;;;;1.80;0.60;;;;;;;22.58;32.18;100313.55;104305;1257;72694;-67
2023/06/04 10:59:59;;;;;;;1.80;0.60;;;;;;;22.62;32.06;100305.91;104236;1257;60277;-68
2023/06/04 11:02:26;;;;;;;1.30;0.60;;;;;;;22.76;32.38;100303.52;104036;1266;60432;-69
2023/06/04 11:05:06;;;;;;;1.90;0.70;;;;;;;22.91;32.21;100301.85;104261;1257;72919;-66
2023/06/04 11:07:44;;;;;;;1.20;0.70;;;;;;;22.96;30.93;100296.66;104133;1260;69140;-64
2023/06/04 11:10:15;;;;;;;1.40;0.80;;;;;;;22.86;31.07;100295.15;104214;1261;72982;-65
2023/06/04 11:12:45;;;;;;;0.70;0.70;;;;;;;22.76;30.61;100298.49;104226;1256;60487;-65
2023/06/04 11:15:13;;;;;;;0.80;0.60;;;;;;;22.66;30.12;100293.98;104103;1272;60169;-66
2023/06/04 11:17:53;;;;;;;2.00;0.70;;;;;;;22.59;30.41;100292.77;104236;1256;73358;-68
2023/06/04 11:20:22;;;;;;;0.80;0.70;;;;;;;22.58;30.59;100291.27;104203;1269;68164;-69
2023/06/04 11:22:51;;;;;;;0.70;0.70;;;;;;;22.59;30.34;100296.01;104367;1272;72469;-68
2023/06/04 11:25:18;;;;;;;1.20;0.60;;;;;;;22.56;29.69;100291.41;104243;1261;60032;-67
2023/06/04 11:27:46;;;;;;;1.00;0.70;;;;;;;22.48;30.68;100288.28;104324;1259;60359;-67